• Join FlightAware (Why Join?)
  • Login
  • US Flag 
09:42AM EDT


 

Airport Tracker/Info


-or-


 

Live Flight TrackerFlight Track Log ✈ EMD28 ✈ 25-Sep-2013 ✈ KICT - KGYH

Flight Track Log - Related Links

Times and Time Zones

All times are in EDT time to prevent confusion due to time zone crossing. See the EMD28 flight status page for this flight to view local times or setup timezone preferences in your user account.

Time Position Orientation Groundspeed Altitude Reporting Facility
EDT Latitude Longitude Course Direction KTS MPH feet Rate Location/Type
06:12PM 37.6425 -97.4275 172° South 130 150 1,600  Level Kansas City Center
06:14PM 37.6106 -97.4219 172° South 143 165 2,800 1,200 Climbing Kansas City Center
06:14PM 37.6108 -97.4183 84° East 156 180 3,000 1,260 Climbing Kansas City Center
06:15PM 37.5956 -97.3767 115° Southeast 144 166 4,100 1,140 Climbing Kansas City Center
06:15PM 37.5964 -97.3725 76° East 146 168 4,200 1,140 Climbing Kansas City Center
06:16PM 37.5739 -97.3272 122° Southeast 144 166 5,400 1,140 Climbing Kansas City Center
06:16PM 37.5756 -97.3294 313° West 145 167 5,400 1,080 Level Kansas City Center
06:16PM 37.5575 -97.2900 120° Southeast 149 171 6,300 1,020 Climbing Kansas City Center
06:17PM 37.5556 -97.2836 111° Southeast 146 168 6,500 1,260 Climbing Kansas City Center
06:17PM 37.5400 -97.2400 114° Southeast 152 175 7,600 1,200 Climbing Kansas City Center
06:18PM 37.5383 -97.2342 110° East 152 175 7,800 660 Climbing Kansas City Center
06:19PM 37.5164 -97.1842 119° Southeast 158 182 8,500 780 Climbing Kansas City Center
06:20PM 37.4897 -97.1172 117° Southeast 178 205 9,500 900 Climbing Kansas City Center
06:21PM 37.4653 -97.0581 117° Southeast 189 217 10,400 720 Climbing Kansas City Center
06:22PM 37.4389 -96.9964 118° Southeast 196 226 11,100 720 Climbing Kansas City Center
06:23PM 37.4144 -96.9306 115° Southeast 206 237 12,000 900 Climbing Kansas City Center
06:24PM 37.3875 -96.8742 121° Southeast 193 222 13,000 840 Climbing Kansas City Center
06:25PM 37.3686 -96.8142 112° Southeast 186 214 13,800 720 Climbing Kansas City Center
06:26PM 37.3667 -96.7300 92° East 194 223 14,500 780 Climbing Kansas City Center
06:27PM 37.3653 -96.6606 91° East 199 229 15,500 840 Climbing Kansas City Center
06:28PM 37.3536 -96.5981 103° East 190 219 16,300 600 Climbing Kansas City Center
06:29PM 37.3386 -96.5339 106° East 190 219 16,800 480 Climbing Kansas City Center
06:30PM 37.3356 -96.4617 93° East 199 229 17,400 720 Climbing Kansas City Center
06:31PM 37.3303 -96.3758 94° East 207 238 18,400 720 Climbing Kansas City Center
06:32PM 37.3164 -96.3097 105° East 202 232 19,000 540 Climbing Kansas City Center
06:33PM 37.3047 -96.2417 102° East 199 229 19,600 540 Climbing Kansas City Center
06:34PM 37.3028 -96.1678 92° East 205 236 20,200 600 Climbing Kansas City Center
06:35PM 37.2956 -96.0992 98° East 204 235 20,900 360 Climbing Kansas City Center
06:36PM 37.2811 -96.0311 105° East 203 234 21,000  Climbing Kansas City Center
06:37PM 37.2700 -95.9364 98° East 212 244 21,000  Level Kansas City Center
06:38PM 37.2639 -95.8497 95° East 227 261 21,000  Level Kansas City Center
06:39PM 37.2508 -95.7633 101° East 240 276 21,000  Level Kansas City Center
06:40PM 37.2381 -95.6783 101° East 245 282 21,000  Level Kansas City Center
06:42PM 37.2283 -95.5919 98° East 247 284 21,000  Level Kansas City Center
06:43PM 37.2194 -95.5064 97° East 248 285 21,000  Level Kansas City Center
06:44PM 37.2064 -95.4219 101° East 246 283 21,000  Level Kansas City Center
06:45PM 37.1931 -95.3181 99° East 249 287 21,000  Level Kansas City Center
06:46PM 37.1833 -95.2311 98° East 250 288 21,000  Level Kansas City Center
06:47PM 37.1714 -95.1453 100° East 250 288 21,000  Level Kansas City Center
06:48PM 37.1592 -95.0575 100° East 252 290 21,000  Level Kansas City Center
06:49PM 37.1489 -94.9717 99° East 250 288 21,000  Level Kansas City Center
06:50PM 37.1367 -94.8864 100° East 249 287 21,000  Level Kansas City Center
06:51PM 37.1253 -94.7989 99° East 251 289 21,000  Level Kansas City Center
06:52PM 37.1122 -94.6964 99° East 249 287 21,000  Level Kansas City Center
06:53PM 37.1000 -94.6108 100° East 249 287 21,000  Level Kansas City Center
06:54PM 37.0889 -94.5244 99° East 250 288 21,000  Level Kansas City Center
06:55PM 37.0761 -94.4381 100° East 251 289 21,000  Level Kansas City Center
06:56PM 37.0650 -94.3517 99° East 251 289 21,000  Level Kansas City Center
06:57PM 37.0531 -94.2650 100° East 251 289 21,000  Level Kansas City Center
06:58PM 37.0406 -94.1803 100° East 249 287 21,000  Level Kansas City Center
06:59PM 37.0267 -94.0775 100° East 249 287 21,000  Level Kansas City Center
07:00PM 37.0147 -93.9914 100° East 250 288 21,000  Level Kansas City Center
07:01PM 37.0031 -93.9047 100° East 251 289 21,000  Level Kansas City Center
07:02PM 36.9892 -93.8189 101° East 252 290 21,000  Level Kansas City Center
07:03PM 36.9769 -93.7244 99° East 250 288 21,000  Level Kansas City Center
07:04PM 36.9636 -93.6389 101° East 250 288 21,000  Level Kansas City Center
07:05PM 36.9525 -93.5547 99° East 248 285 21,000  Level Kansas City Center
07:06PM 36.9400 -93.4706 101° East 247 284 21,000  Level Kansas City Center
07:07PM 36.9267 -93.3839 101° East 251 289 21,000  Level Kansas City Center
07:08PM 36.9144 -93.2981 100° East 251 289 21,000  Level Kansas City Center
07:09PM 36.8986 -93.1972 101° East 249 287 21,000  Level Kansas City Center
07:10PM 36.8864 -93.1122 100° East 248 285 21,000  Level Kansas City Center
07:12PM 36.8742 -93.0275 100° East 249 287 21,000  Level Kansas City Center
07:13PM 36.8614 -92.9439 101° East 247 284 21,000  Level Kansas City Center
07:14PM 36.8483 -92.8597 101° East 247 284 21,000  Level Kansas City Center
07:15PM 36.8358 -92.7736 100° East 249 287 21,000  Level Kansas City Center
07:16PM 36.8206 -92.6728 101° East 249 287 21,000  Level Kansas City Center
07:17PM 36.8069 -92.5886 101° East 248 285 21,000  Level Kansas City Center
07:18PM 36.7944 -92.5019 100° East 250 288 21,000  Level Kansas City Center
07:19PM 36.7814 -92.4175 101° East 250 288 21,000  Level Kansas City Center
07:20PM 36.7686 -92.3336 101° East 248 285 21,000  Level Kansas City Center
07:21PM 36.7553 -92.2494 101° East 249 287 21,000  Level Kansas City Center
07:22PM 36.7419 -92.1642 101° East 249 287 21,000  Level Kansas City Center
07:23PM 36.7256 -92.0611 101° East 251 289 21,000  Level Kansas City Center
07:24PM 36.7122 -91.9772 101° East 249 287 21,000  Level Kansas City Center
07:25PM 36.6978 -91.8903 102° East 254 292 21,000  Level Kansas City Center
07:27PM 36.6722 -91.7411 102° East 244 281 21,000  Level Memphis Center
07:28PM 36.6583 -91.6581 102° East 244 281 21,000  Level Memphis Center
07:29PM 36.6428 -91.5647 102° East 244 281 21,000  Level Memphis Center
07:30PM 36.6311 -91.4792 100° East 239 275 21,000  Level Memphis Center
07:31PM 36.6150 -91.3936 103° East 239 275 21,000  Level Memphis Center
07:32PM 36.6033 -91.3081 100° East 239 275 21,000  Level Memphis Center
07:33PM 36.5872 -91.2200 103° East 244 281 21,000  Level Memphis Center
07:34PM 36.5711 -91.1397 104° East 239 275 21,000  Level Memphis Center
07:35PM 36.5611 -91.0622 99° East 239 275 21,000  Level Memphis Center
07:36PM 36.5489 -90.9794 100° East 239 275 21,000  Level Memphis Center
07:37PM 36.5328 -90.8914 103° East 239 275 21,000  Level Memphis Center
07:38PM 36.5183 -90.8089 102° East 239 275 21,000  Level Memphis Center
07:39PM 36.5000 -90.7208 104° East 239 275 21,000  Level Memphis Center
07:40PM 36.4897 -90.6356 99° East 239 275 21,000  Level Memphis Center
07:41PM 36.4733 -90.5531 104° East 239 275 21,000  Level Memphis Center
07:42PM 36.4589 -90.4653 102° East 239 275 21,000  Level Memphis Center
07:43PM 36.4422 -90.3775 103° East 244 281 21,000  Level Memphis Center
07:44PM 36.4297 -90.2900 100° East 249 287 21,000  Level Memphis Center
07:45PM 36.4128 -90.2022 103° East 254 292 21,000  Level Memphis Center
07:46PM 36.3981 -90.1147 102° East 259 298 21,000  Level Memphis Center
07:47PM 36.3811 -90.0269 103° East 259 298 21,000  Level Memphis Center
07:48PM 36.3664 -89.9419 102° East 259 298 21,000  Level Memphis Center
07:49PM 36.3514 -89.8544 102° East 259 298 21,000  Level Memphis Center
07:50PM 36.3364 -89.7694 102° East 259 298 21,000  Level Memphis Center
07:51PM 36.3194 -89.6822 104° East 259 298 21,000  Level Memphis Center
07:52PM 36.3042 -89.5947 102° East 259 298 21,000  Level Memphis Center
07:53PM 36.2869 -89.5072 104° East 259 298 21,000  Level Memphis Center
07:54PM 36.2697 -89.4200 104° East 259 298 21,000  Level Memphis Center
07:55PM 36.2544 -89.3300 102° East 259 298 21,000  Level Memphis Center
07:56PM 36.2411 -89.2453 101° East 259 298 21,000  Level Memphis Center
07:57PM 36.2214 -89.1453 104° East 259 298 21,000  Level Memphis Center
07:58PM 36.2081 -89.0606 101° East 259 298 21,000  Level Memphis Center
07:59PM 36.1925 -88.9733 102° East 259 298 21,000  Level Memphis Center
08:00PM 36.1769 -88.8861 102° East 259 298 21,000  Level Memphis Center
08:01PM 36.1697 -88.7989 96° East 259 298 21,000  Level Memphis Center
08:02PM 36.1622 -88.7117 96° East 259 298 21,000  Level Memphis Center
08:03PM 36.1528 -88.6244 98° East 254 292 21,000  Level Memphis Center
08:04PM 36.1431 -88.5372 98° East 254 292 21,000  Level Memphis Center
08:05PM 36.1356 -88.4475 96° East 254 292 21,000  Level Memphis Center
08:06PM 36.1236 -88.3603 100° East 254 292 21,000  Level Memphis Center
08:07PM 36.1036 -88.2736 106° East 254 292 21,000  Level Memphis Center
08:08PM 36.0894 -88.1892 102° East 259 298 21,000  Level Memphis Center
08:09PM 36.0714 -88.0997 104° East 259 298 21,000  Level Memphis Center
08:10PM 36.0508 -88.0156 107° East 259 298 21,000  Level Memphis Center
08:11PM 36.0303 -87.9239 105° East 265 305 21,000  Level Memphis Center
08:12PM 36.0161 -87.8394 102° East 260 299 21,000  Level Memphis Center
08:13PM 35.9978 -87.7528 105° East 260 299 21,000  Level Memphis Center
08:14PM 35.9792 -87.6661 105° East 260 299 21,000  Level Memphis Center
08:15PM 35.9628 -87.5769 103° East 260 299 21,000  Level Memphis Center
08:16PM 35.9461 -87.4931 104° East 260 299 21,000  Level Memphis Center
08:17PM 35.9275 -87.4039 104° East 260 299 21,000  Level Memphis Center
08:18PM 35.9108 -87.3275 105° East 260 299 21,000  Level Memphis Center
08:19PM 35.8922 -87.2411 105° East 260 299 21,000  Level Memphis Center
08:20PM 35.8753 -87.1547 104° East 260 299 21,000  Level Memphis Center
08:21PM 35.8564 -87.0683 105° East 260 299 21,000  Level Memphis Center
08:22PM 35.8372 -86.9794 105° East 260 299 21,000  Level Memphis Center
08:23PM 35.8203 -86.8958 104° East 260 299 21,000  Level Memphis Center
08:24PM 35.8014 -86.8094 105° East 260 299 21,000  Level Memphis Center
08:25PM 35.7842 -86.7258 104° East 260 299 21,000  Level Memphis Center
08:26PM 35.7672 -86.6397 104° East 260 299 21,000  Level Memphis Center
08:27PM 35.7456 -86.5486 106° East 260 299 21,000  Level Memphis Center
08:28PM 35.7283 -86.4622 104° East 260 299 21,000  Level Memphis Center
08:29PM 35.7089 -86.3739 105° East 260 299 21,000  Level Memphis Center
08:30PM 35.6894 -86.2903 106° East 260 299 21,000  Level Memphis Center
08:31PM 35.6719 -86.2044 104° East 260 299 21,000  Level Memphis Center
08:32PM 35.6544 -86.1158 104° East 260 299 21,000  Level Memphis Center
08:33PM 35.6347 -86.0300 106° East 260 299 21,000  Level Memphis Center
08:34PM 35.6150 -85.9467 106° East 260 299 21,000  Level Memphis Center
08:35PM 35.5933 -85.8611 107° East 260 299 21,000  Level Memphis Center
08:36PM 35.5756 -85.7728 104° East 260 299 21,000  Level Memphis Center
08:37PM 35.5556 -85.6869 106° East 260 299 21,000  Level Memphis Center
08:39PM 35.5156 -85.5108 106° East 264 304 21,000  Level Atlanta Center
08:40PM 35.4978 -85.4239 104° East 264 304 21,000  Level Atlanta Center
08:41PM 35.4756 -85.3394 108° East 264 304 21,000  Level Atlanta Center
08:42PM 35.4558 -85.2522 105° East 264 304 21,000  Level Atlanta Center
08:43PM 35.4378 -85.1653 104° East 264 304 21,000  Level Atlanta Center
08:44PM 35.4175 -85.0811 106° East 264 304 21,000  Level Atlanta Center
08:45PM 35.3975 -84.9942 106° East 264 304 21,000  Level Atlanta Center
08:46PM 35.3772 -84.9100 106° East 264 304 21,000  Level Atlanta Center
08:47PM 35.3569 -84.8256 106° East 264 304 21,000  Level Atlanta Center
08:48PM 35.3367 -84.7414 106° East 264 304 21,000  Level Atlanta Center
08:49PM 35.3183 -84.6572 105° East 264 304 21,000  Level Atlanta Center
08:50PM 35.2978 -84.5731 107° East 264 304 21,000  Level Atlanta Center
08:51PM 35.2794 -84.4892 105° East 264 304 21,000  Level Atlanta Center
08:52PM 35.2586 -84.4075 107° East 264 304 21,000  Level Atlanta Center
08:53PM 35.2381 -84.3236 107° East 264 304 21,000  Level Atlanta Center
08:54PM 35.2194 -84.2397 105° East 264 304 21,000  Level Atlanta Center
08:55PM 35.1986 -84.1556 107° East 264 304 21,000  Level Atlanta Center
08:56PM 35.1778 -84.0719 107° East 264 304 21,000  Level Atlanta Center
08:57PM 35.1592 -83.9881 105° East 264 304 21,000 -300 Level Atlanta Center
08:58PM 35.1381 -83.8992 106° East 264 304 20,400 -840 Descending Atlanta Center
08:59PM 35.1131 -83.8053 108° East 274 315 19,400 -1,080 Descending Atlanta Center
09:00PM 35.0939 -83.7114 104° East 280 322 18,300 -1,200 Descending Atlanta Center
09:01PM 35.0728 -83.6150 105° East 285 328 17,100 -1,200 Descending Atlanta Center
09:02PM 35.0453 -83.5264 111° Southeast 285 328 16,000 -1,200 Descending Atlanta Center
09:03PM 35.0219 -83.4453 109° East 285 328 14,800 -1,080 Descending Atlanta Center
09:04PM 35.0050 -83.3567 103° East 280 322 13,900 -780 Descending Atlanta Center
09:05PM 34.9878 -83.2808 105° East 257 296 13,300 -600 Descending Atlanta Center
09:06PM 34.9664 -83.2125 111° Southeast 234 269 12,700 -780 Descending Atlanta Center
09:07PM 34.9472 -83.1392 108° East 220 253 11,800 -1,020 Descending Atlanta Center
09:08PM 34.9319 -83.0633 104° East 220 253 10,700 -1,140 Descending Atlanta Center
09:09PM 34.9106 -82.9900 110° East 230 265 9,600 -900 Descending Atlanta Center
09:10PM 34.8953 -82.9194 105° East 224 258 9,000 -300 Descending Atlanta Center
09:11PM 34.8781 -82.8564 108° East 211 243 9,000 -600 Level Atlanta Center
09:12PM 34.8606 -82.7858 107° East 205 236 7,800 -1,380 Descending Atlanta Center
09:13PM 34.8347 -82.7178 115° Southeast 210 242 6,300 -1,500 Descending Atlanta Center
09:14PM 34.7925 -82.6706 137° Southeast 210 242 4,900 -1,500 Descending Atlanta Center
09:15PM 34.7544 -82.6206 133° Southeast 210 242 3,400 -960 Descending Atlanta Center
09:16PM 34.7372 -82.5653 111° Southeast 192 221 3,000 -300 Descending Atlanta Center
09:17PM 34.7283 -82.5222 104° East 159 183 2,900 -120 Descending Atlanta Center
09:19PM 34.7559 -82.3884 112° Southeast  Level Estimated
09:26PM 34.7583 -82.3764 112° Southeast  Level Estimated
09:27PM 34.7583 -82.3764 112° Southeast  Level Estimated
09:28PM 34.7583 -82.3764 112° Southeast  Level Estimated
09:29PM 34.7583 -82.3764 112° Southeast  Level Estimated